Time;durP1;ratioP1;P1;durP2;ratioP2;P2;SDS_P1;SDS_P2;PMS_P1;PMS_P2;Temp;Humidity;BMP_temperature;BMP_pressure;BME280_temperature;BME280_humidity;BME280_pressure;Samples;Min_cycle;Max_cycle;Signal;HPM_P1;HPM_P2
2021/08/19 00:00:08;;;;;;;2.43;2.00;;;18.60;99.90;;;18.57;96.80;98215.56;5080612;28;20744;-86
2021/08/19 00:02:37;;;;;;;3.00;2.40;;;18.60;99.90;;;18.56;96.97;98205.94;5089526;28;20995;-86
2021/08/19 00:05:07;;;;;;;3.57;2.40;;;18.60;99.90;;;18.57;96.07;98215.56;5100621;28;20687;-86
2021/08/19 00:07:37;;;;;;;4.60;2.70;;;18.60;99.90;;;18.58;96.72;98214.59;5074526;28;21033;-86
2021/08/19 00:10:09;;;;;;;3.80;2.40;;;18.60;99.90;;;18.57;96.30;98212.91;5076191;28;20634;-86
2021/08/19 00:12:38;;;;;;;5.23;2.50;;;18.60;99.90;;;18.55;97.14;98214.88;5099574;28;20635;-86
2021/08/19 00:15:09;;;;;;;3.40;2.53;;;18.60;99.90;;;18.55;96.87;98216.66;5063854;28;20662;-86
2021/08/19 00:17:37;;;;;;;3.50;3.07;;;18.60;99.90;;;18.55;96.96;98209.59;5072304;28;20646;-86
2021/08/19 00:20:08;;;;;;;4.60;2.47;;;18.60;99.90;;;18.56;97.20;98205.13;5095628;28;20661;-86
2021/08/19 00:22:38;;;;;;;3.30;2.30;;;18.60;99.90;;;18.56;97.42;98205.13;5068528;28;20682;-86
2021/08/19 00:25:09;;;;;;;3.10;2.23;;;18.60;99.90;;;18.55;97.19;98188.47;5083354;28;20622;-86
2021/08/19 00:27:37;;;;;;;2.90;1.87;;;18.60;99.90;;;18.55;97.15;98192.91;5066726;28;20675;-86
2021/08/19 00:30:08;;;;;;;4.70;2.30;;;18.60;99.90;;;18.53;96.82;98197.50;5094020;28;20626;-85
2021/08/19 00:32:36;;;;;;;6.10;2.80;;;18.60;99.90;;;18.51;97.20;98192.38;5066664;28;20630;-86
2021/08/19 00:35:18;;;;;;;2.80;2.20;;;18.60;99.90;;;18.50;96.61;98196.00;5074049;28;20626;-86
2021/08/19 00:37:48;;;;;;;3.03;2.10;;;18.60;99.90;;;18.51;97.07;98196.84;5092561;28;20725;-86
2021/08/19 00:40:17;;;;;;;4.63;2.40;;;18.60;99.90;;;18.48;96.15;98203.25;5067971;28;20614;-86
2021/08/19 00:42:45;;;;;;;3.30;2.70;;;18.50;99.90;;;18.49;96.88;98204.06;5078328;28;20728;-86
2021/08/19 00:45:14;;;;;;;3.80;2.60;;;18.50;99.90;;;18.50;96.27;98190.69;5098433;28;21175;-86
2021/08/19 00:47:43;;;;;;;2.97;2.23;;;18.50;99.90;;;18.51;96.20;98191.56;5068662;28;21148;-86
2021/08/19 00:50:11;;;;;;;3.30;2.03;;;18.60;99.90;;;18.48;97.03;98182.09;5066358;28;21233;-86
2021/08/19 00:52:42;;;;;;;3.50;2.10;;;18.50;99.90;;;18.46;97.34;98175.31;5082629;28;20643;-86
2021/08/19 00:55:13;;;;;;;3.33;2.53;;;18.50;99.90;;;18.45;96.94;98174.47;5075009;28;20714;-86
2021/08/19 00:57:43;;;;;;;3.03;2.00;;;18.50;99.90;;;18.43;96.99;98176.47;5082723;28;21185;-86
2021/08/19 01:00:14;;;;;;;3.90;2.67;;;18.50;99.90;;;18.41;96.60;98174.13;5086637;28;20637;-86
2021/08/19 01:02:45;;;;;;;3.23;2.07;;;18.50;99.90;;;18.38;96.66;98166.50;5100785;28;20737;-86
2021/08/19 01:05:16;;;;;;;2.37;1.97;;;18.40;99.90;;;18.37;97.16;98170.09;5063767;28;20637;-86
2021/08/19 01:07:46;;;;;;;3.50;2.27;;;18.40;99.90;;;18.36;97.53;98171.06;5097991;28;20657;-86
2021/08/19 01:10:16;;;;;;;4.93;2.33;;;18.40;99.90;;;18.37;97.81;98170.09;5088014;28;20634;-86
2021/08/19 01:12:46;;;;;;;3.33;2.50;;;18.40;99.90;;;18.38;97.81;98171.78;5073000;28;20623;-86
2021/08/19 01:15:15;;;;;;;2.60;2.40;;;18.40;99.90;;;18.39;98.20;98173.41;5087587;28;20640;-86
2021/08/19 01:17:56;;;;;;;3.67;2.60;;;18.40;99.90;;;18.39;97.21;98173.41;5106922;28;20641;-86
2021/08/19 01:20:30;;;;;;;4.73;2.70;;;18.40;99.90;;;18.39;97.70;98176.91;5060952;28;20662;-86
2021/08/19 01:23:00;;;;;;;3.17;2.27;;;18.50;99.90;;;18.39;96.60;98171.63;5082906;28;20761;-86
2021/08/19 01:25:30;;;;;;;2.20;2.00;;;18.40;99.90;;;18.39;97.50;98171.63;5068967;28;20630;-86
2021/08/19 01:28:00;;;;;;;5.60;2.40;;;18.50;99.90;;;18.38;97.66;98169.13;5081220;28;20627;-86
2021/08/19 01:30:29;;;;;;;2.50;2.30;;;18.40;99.90;;;18.37;97.88;98178.03;5091577;28;20733;-86
2021/08/19 01:32:58;;;;;;;2.90;2.43;;;18.40;99.90;;;18.35;97.11;98174.72;5067508;28;20679;-86
2021/08/19 01:35:30;;;;;;;2.43;1.80;;;18.40;99.90;;;18.34;97.26;98173.88;5099669;28;21260;-86
2021/08/19 01:37:59;;;;;;;2.63;2.37;;;18.40;99.90;;;18.35;98.29;98170.25;5084023;28;22039;-86
2021/08/19 01:40:28;;;;;;;4.50;2.40;;;18.40;99.90;;;18.36;97.10;98173.72;5070810;28;21077;-86
2021/08/19 01:42:56;;;;;;;5.73;2.10;;;18.40;99.90;;;18.36;97.02;98179.00;5084655;28;20687;-86
2021/08/19 01:45:26;;;;;;;2.50;2.10;;;18.40;99.90;;;18.37;98.22;98173.56;5074049;28;20658;-86
2021/08/19 01:47:55;;;;;;;3.50;2.40;;;18.40;99.90;;;18.38;97.47;98174.41;5083524;28;20740;-85
2021/08/19 01:50:24;;;;;;;2.80;2.30;;;18.40;99.90;;;18.37;97.74;98175.38;5079533;28;20639;-86
2021/08/19 01:52:53;;;;;;;4.47;2.50;;;18.40;99.90;;;18.34;98.01;98176.50;5086022;28;20635;-86
2021/08/19 01:55:22;;;;;;;2.37;2.17;;;18.40;99.90;;;18.33;98.03;98172.22;5086714;28;21006;-86
2021/08/19 01:57:50;;;;;;;4.97;2.33;;;18.40;99.90;;;18.34;98.58;98173.03;5095064;28;20680;-85
2021/08/19 02:00:19;;;;;;;3.30;2.70;;;18.40;99.90;;;18.32;97.31;98175.84;5084623;28;21284;-86
2021/08/19 02:02:49;;;;;;;3.10;2.20;;;18.40;99.90;;;18.32;98.21;98167.09;5074259;28;20738;-86
2021/08/19 02:05:18;;;;;;;3.30;2.23;;;18.40;99.90;;;18.34;97.90;98170.41;5065096;28;20742;-85
2021/08/19 02:08:02;;;;;;;3.13;2.13;;;18.40;99.90;;;18.35;98.65;98169.44;5090607;28;20642;-85
2021/08/19 02:10:31;;;;;;;3.13;2.40;;;18.40;99.90;;;18.34;98.27;98171.22;5083280;28;20627;-85
2021/08/19 02:12:59;;;;;;;4.57;2.40;;;18.40;99.90;;;18.34;98.13;98175.69;5095482;28;20649;-86
2021/08/19 02:15:28;;;;;;;3.90;2.30;;;18.40;99.90;;;18.33;98.52;98168.72;5070902;28;20633;-86
2021/08/19 02:17:59;;;;;;;3.27;2.20;;;18.40;99.90;;;18.31;99.04;98166.28;5071747;28;20641;-85
2021/08/19 02:20:28;;;;;;;2.47;2.10;;;18.40;99.90;;;18.31;98.75;98163.63;5074466;28;20748;-85
2021/08/19 02:23:00;;;;;;;3.50;2.43;;;18.40;99.90;;;18.32;98.96;98169.72;5082463;28;20646;-86
2021/08/19 02:25:29;;;;;;;3.13;2.30;;;18.40;99.90;;;18.31;98.62;98163.63;5091645;28;20664;-85
2021/08/19 02:27:59;;;;;;;3.33;3.03;;;18.40;99.90;;;18.32;97.89;98170.56;5083820;28;20714;-86
2021/08/19 02:30:28;;;;;;;2.43;2.07;;;18.40;99.90;;;18.32;97.67;98159.16;5070641;28;20654;-86
2021/08/19 02:32:58;;;;;;;2.60;2.23;;;18.40;99.90;;;18.31;97.60;98166.28;5082860;28;20734;-86
2021/08/19 02:35:28;;;;;;;3.20;2.70;;;18.40;99.90;;;18.33;97.64;98160.81;5071644;28;20626;-85
2021/08/19 02:38:00;;;;;;;2.80;2.50;;;18.40;99.90;;;18.33;97.03;98166.94;5082987;28;21260;-85
2021/08/19 02:40:31;;;;;;;2.50;2.27;;;18.40;99.90;;;18.33;97.80;98160.81;5097241;28;21199;-86
2021/08/19 02:42:59;;;;;;;3.00;2.60;;;18.40;99.90;;;18.31;97.87;98158.34;5081478;28;20753;-86
2021/08/19 02:45:28;;;;;;;4.20;2.43;;;18.40;99.90;;;18.29;98.63;98159.47;5079615;28;21063;-85
2021/08/19 02:47:58;;;;;;;3.07;2.50;;;18.40;99.90;;;18.30;98.16;98167.25;5071210;28;21203;-86
2021/08/19 02:50:27;;;;;;;4.73;2.73;;;18.40;99.90;;;18.31;98.12;98160.13;5061979;28;20974;-86
2021/08/19 02:52:56;;;;;;;3.70;2.60;;;18.40;99.90;;;18.31;97.50;98154.84;5089527;28;20665;-86
2021/08/19 02:55:24;;;;;;;3.57;2.80;;;18.40;99.90;;;18.31;97.39;98162.78;5078142;28;21188;-86
2021/08/19 02:57:53;;;;;;;3.80;2.83;;;18.40;99.90;;;18.31;97.63;98154.84;5089469;28;20630;-86
2021/08/19 03:00:21;;;;;;;2.60;2.20;;;18.40;99.90;;;18.31;97.92;98150.44;5062638;28;20649;-85
2021/08/19 03:02:50;;;;;;;4.33;2.77;;;18.40;99.90;;;18.31;97.61;98155.72;5081158;28;20642;-86
2021/08/19 03:05:21;;;;;;;2.93;2.63;;;18.40;99.90;;;18.30;98.01;98148.75;5078850;28;20634;-86
2021/08/19 03:07:49;;;;;;;3.03;2.73;;;18.40;99.90;;;18.30;97.59;98145.28;5096279;28;20630;-85
2021/08/19 03:10:18;;;;;;;3.00;2.70;;;18.40;99.90;;;18.29;97.93;98143.63;5084580;28;20630;-86
2021/08/19 03:12:47;;;;;;;3.10;2.50;;;18.40;99.90;;;18.28;98.16;98144.59;5069133;28;21138;-85
2021/08/19 03:15:16;;;;;;;3.40;3.10;;;18.40;99.90;;;18.29;97.30;98148.91;5085445;28;20623;-86
2021/08/19 03:17:45;;;;;;;3.30;2.60;;;18.40;99.90;;;18.28;97.34;98147.22;5076565;28;20742;-86
2021/08/19 03:20:14;;;;;;;2.87;2.57;;;18.40;99.90;;;18.27;97.41;98150.88;5058484;28;20651;-86
2021/08/19 03:22:46;;;;;;;4.13;3.43;;;18.30;99.90;;;18.26;96.76;98144.75;5089866;28;20657;-85
2021/08/19 03:25:15;;;;;;;3.30;2.93;;;18.30;99.90;;;18.25;96.82;98140.47;5073786;28;20634;-85
2021/08/19 03:27:44;;;;;;;4.13;2.77;;;18.30;99.90;;;18.26;96.61;98142.09;5085376;28;20617;-86
2021/08/19 03:30:13;;;;;;;3.37;2.90;;;18.30;99.90;;;18.23;96.23;98142.41;5067238;28;20666;-86
2021/08/19 03:32:41;;;;;;;2.87;2.57;;;18.30;99.90;;;18.24;95.54;98137.97;5097481;28;21236;-86
2021/08/19 03:35:11;;;;;;;4.30;3.10;;;18.30;99.90;;;18.25;96.53;98147.53;5093889;28;20734;-86
2021/08/19 03:37:40;;;;;;;3.20;2.87;;;18.30;99.90;;;18.24;96.30;98143.25;5084449;28;20626;-85
2021/08/19 03:40:13;;;;;;;3.80;2.87;;;18.30;99.90;;;18.25;96.35;98151.03;5078780;28;20674;-86
2021/08/19 03:42:41;;;;;;;4.60;3.20;;;18.30;99.90;;;18.25;96.61;98147.53;5094568;28;21652;-86
2021/08/19 03:45:11;;;;;;;3.13;2.83;;;18.30;99.90;;;18.24;96.31;98143.25;5074144;28;20644;-85
2021/08/19 03:47:41;;;;;;;4.20;3.53;;;18.30;99.90;;;18.25;96.84;98150.19;5072124;28;20667;-86
2021/08/19 03:50:10;;;;;;;3.80;3.50;;;18.30;99.90;;;18.24;96.68;98145.91;5073199;28;20630;-85
2021/08/19 03:52:39;;;;;;;4.03;3.63;;;18.30;99.90;;;18.23;96.45;98149.50;5062884;28;20642;-85
2021/08/19 03:55:10;;;;;;;3.50;2.77;;;18.30;99.90;;;18.20;97.41;98145.34;5070206;28;20626;-85
2021/08/19 03:57:38;;;;;;;3.97;2.90;;;18.30;99.90;;;18.22;97.42;98143.41;5076887;28;20611;-85
2021/08/19 04:00:09;;;;;;;3.57;2.90;;;18.30;99.90;;;18.20;96.23;98139.25;5071535;28;20618;-85
2021/08/19 04:02:40;;;;;;;3.37;3.07;;;18.30;99.90;;;18.19;96.42;98140.22;5098650;28;20737;-85
2021/08/19 04:05:10;;;;;;;3.43;3.13;;;18.30;99.90;;;18.20;96.60;98144.53;5063457;28;20669;-85
2021/08/19 04:07:40;;;;;;;3.80;3.40;;;18.30;99.90;;;18.20;96.94;98141.88;5067725;28;21307;-86
2021/08/19 04:10:11;;;;;;;3.70;3.13;;;18.30;99.90;;;18.20;96.72;98141.88;5077781;28;20692;-85
2021/08/19 04:12:41;;;;;;;4.70;3.03;;;18.30;99.90;;;18.18;96.84;98136.75;5092094;28;20668;-86
2021/08/19 04:15:11;;;;;;;5.73;3.47;;;18.20;99.90;;;18.17;96.52;98135.06;5098495;28;21215;-85
2021/08/19 04:17:40;;;;;;;3.43;3.00;;;18.30;99.90;;;18.17;96.91;98137.72;5073097;28;20634;-85
2021/08/19 04:20:11;;;;;;;7.37;3.27;;;18.30;99.90;;;18.13;96.66;98143.44;5082852;28;20677;-86
2021/08/19 04:22:39;;;;;;;3.67;2.53;;;18.20;99.90;;;18.12;96.69;98141.78;5075001;28;20647;-86
2021/08/19 04:25:11;;;;;;;6.50;3.37;;;18.20;99.90;;;18.10;96.38;98141.06;5096744;28;20634;-85
2021/08/19 04:27:40;;;;;;;3.40;3.10;;;18.20;99.90;;;18.11;97.45;98142.75;5082050;28;20729;-85
2021/08/19 04:30:11;;;;;;;4.30;3.90;;;18.20;99.90;;;18.11;96.65;98142.75;5072417;28;20648;-85
2021/08/19 04:32:39;;;;;;;5.03;3.43;;;18.20;99.90;;;18.11;96.15;98138.28;5067383;28;20725;-85
2021/08/19 04:35:09;;;;;;;3.50;3.20;;;18.20;99.90;;;18.15;96.57;98139.69;5078676;28;20639;-85
2021/08/19 04:37:39;;;;;;;3.80;3.50;;;18.20;99.90;;;18.17;96.45;98142.19;5083601;28;20627;-85
2021/08/19 04:40:10;;;;;;;4.40;3.50;;;18.20;99.90;;;18.17;96.76;98134.25;5065821;28;20733;-85
2021/08/19 04:42:39;;;;;;;3.30;3.00;;;18.20;99.90;;;18.16;96.76;98140.50;5065647;28;20680;-86
2021/08/19 04:45:09;;;;;;;4.13;3.33;;;18.20;99.90;;;18.15;96.98;98138.88;5062693;28;20979;-85
2021/08/19 04:47:38;;;;;;;5.63;3.60;;;18.20;99.90;;;18.17;96.84;98142.19;5074829;28;20639;-85
2021/08/19 04:50:07;;;;;;;6.43;3.47;;;18.20;99.90;;;18.17;96.83;98135.06;5076384;28;20722;-85
2021/08/19 04:52:36;;;;;;;4.10;3.70;;;18.30;99.90;;;18.19;96.59;98140.22;5064200;28;20663;-85
2021/08/19 04:55:06;;;;;;;5.93;3.43;;;18.30;99.90;;;18.21;96.61;98144.38;5070487;28;20671;-85
2021/08/19 04:57:36;;;;;;;4.80;3.20;;;18.30;99.90;;;18.23;96.53;98144.22;5094330;28;20645;-85
2021/08/19 05:00:06;;;;;;;3.90;3.23;;;18.30;99.90;;;18.25;96.47;98144.91;5078456;28;20641;-85
2021/08/19 05:02:35;;;;;;;6.03;3.70;;;18.30;99.90;;;18.27;96.42;98137.69;5071974;28;20657;-85
2021/08/19 05:05:05;;;;;;;5.93;3.20;;;18.30;99.90;;;18.28;96.69;98145.44;5071654;28;20659;-85
2021/08/19 05:07:33;;;;;;;5.30;3.50;;;18.30;99.90;;;18.30;96.53;98151.41;5094708;28;20731;-85
2021/08/19 05:10:02;;;;;;;3.60;3.30;;;18.30;99.90;;;18.29;96.54;98149.72;5087684;28;21134;-85
2021/08/19 05:12:30;;;;;;;5.93;3.50;;;18.30;99.90;;;18.31;96.82;98152.22;5087645;28;20627;-85
2021/08/19 05:15:00;;;;;;;4.17;3.13;;;18.30;99.90;;;18.34;95.98;98146.63;5100724;28;20649;-85
2021/08/19 05:17:29;;;;;;;3.77;3.47;;;18.40;99.90;;;18.37;96.24;98148.97;5076499;28;20627;-85
2021/08/19 05:19:58;;;;;;;4.90;2.73;;;18.40;99.90;;;18.41;97.08;98158.28;5069521;28;20659;-85
2021/08/19 05:22:26;;;;;;;5.40;3.67;;;18.50;99.90;;;18.42;96.84;98156.28;5085086;28;20729;-86
2021/08/19 05:24:55;;;;;;;4.03;3.40;;;18.50;99.90;;;18.46;97.68;98159.44;5078641;28;20671;-85
2021/08/19 05:27:23;;;;;;;4.27;3.87;;;18.50;99.90;;;18.49;97.24;98165.28;5066420;28;20658;-85
2021/08/19 05:29:52;;;;;;;3.50;3.00;;;18.50;99.90;;;18.49;96.74;98169.72;5078153;28;20671;-86
2021/08/19 05:32:22;;;;;;;4.17;3.40;;;18.50;99.90;;;18.48;97.12;98157.50;5079713;28;20630;-86
2021/08/19 05:34:50;;;;;;;4.43;3.33;;;18.50;99.90;;;18.48;96.56;98174.19;5087905;28;21003;-85
2021/08/19 05:37:19;;;;;;;3.53;3.23;;;18.50;99.90;;;18.49;97.54;98170.56;5074803;28;20742;-85
2021/08/19 05:39:48;;;;;;;3.93;3.40;;;18.60;99.90;;;18.51;96.90;98176.53;5097852;28;20725;-85
2021/08/19 05:42:16;;;;;;;4.10;3.23;;;18.60;99.90;;;18.52;96.65;98177.34;5080159;28;20646;-85
2021/08/19 05:44:45;;;;;;;5.37;3.03;;;18.60;99.90;;;18.53;96.68;98179.84;5081592;28;20742;-85
2021/08/19 05:47:13;;;;;;;3.43;3.13;;;18.60;99.90;;;18.55;97.13;98180.53;5079378;28;20701;-85
2021/08/19 05:49:45;;;;;;;3.50;3.17;;;18.60;99.90;;;18.54;96.83;98181.50;5081957;28;20626;-85
2021/08/19 05:52:15;;;;;;;4.73;3.33;;;18.60;99.90;;;18.57;96.53;98183.84;5080252;28;20634;-85
2021/08/19 05:54:44;;;;;;;4.40;3.50;;;18.60;99.90;;;18.59;95.90;98181.06;5095856;28;20727;-85
2021/08/19 05:57:16;;;;;;;5.73;3.63;;;18.60;99.90;;;18.59;95.48;98189.81;5065374;28;20654;-85
2021/08/19 05:59:45;;;;;;;4.00;3.20;;;18.70;99.90;;;18.60;96.57;98191.47;5101651;28;20682;-85
2021/08/19 06:02:13;;;;;;;4.43;3.10;;;18.70;99.90;;;18.61;96.44;98185.22;5081131;28;20975;-85
2021/08/19 06:04:44;;;;;;;3.60;3.30;;;18.70;99.90;;;18.61;96.46;98187.00;5100397;28;21275;-85
2021/08/19 06:07:12;;;;;;;3.87;3.50;;;18.60;99.90;;;18.61;96.37;98192.28;5097933;28;20615;-85
2021/08/19 06:09:41;;;;;;;3.60;3.07;;;18.70;99.90;;;18.63;96.44;98190.34;5077783;28;20665;-85
2021/08/19 06:12:10;;;;;;;5.93;3.70;;;18.70;99.90;;;18.63;96.05;98185.88;5098126;28;20635;-85
2021/08/19 06:14:39;;;;;;;3.30;2.97;;;18.70;99.90;;;18.64;96.03;98192.84;5101287;28;20623;-85
2021/08/19 06:17:07;;;;;;;3.80;3.27;;;18.70;99.90;;;18.64;96.14;98192.00;5071250;28;20645;-85
2021/08/19 06:19:36;;;;;;;4.37;3.50;;;18.70;99.90;;;18.63;96.18;98183.25;5104130;28;20637;-85
2021/08/19 06:22:06;;;;;;;4.20;3.80;;;18.70;99.90;;;18.64;96.88;98194.63;5077654;27;20637;-85
2021/08/19 06:24:34;;;;;;;5.30;3.50;;;18.70;99.90;;;18.65;95.51;98185.72;5080796;28;20756;-85
2021/08/19 06:27:04;;;;;;;4.13;3.60;;;18.70;99.90;;;18.67;97.11;98186.41;5106504;28;20617;-85
2021/08/19 06:29:32;;;;;;;4.20;3.80;;;18.80;99.90;;;18.68;97.08;98188.88;5084100;28;21034;-85
2021/08/19 06:32:01;;;;;;;4.40;3.80;;;18.70;99.90;;;18.70;96.24;98186.94;5095901;28;20718;-85
2021/08/19 06:34:31;;;;;;;4.17;3.77;;;18.80;99.90;;;18.71;96.28;98193.88;5079613;28;20621;-85
2021/08/19 06:36:59;;;;;;;4.83;4.33;;;18.80;99.90;;;18.72;96.82;98194.69;5098606;28;20669;-85
2021/08/19 06:39:29;;;;;;;5.77;4.70;;;18.80;99.90;;;18.74;95.41;98192.75;5097431;28;20653;-85
2021/08/19 06:41:58;;;;;;;4.67;4.20;;;18.80;99.90;;;18.75;96.74;98192.59;5073313;28;20662;-85
2021/08/19 06:44:27;;;;;;;7.13;4.40;;;18.80;99.90;;;18.79;96.75;98191.28;5098818;28;20647;-85
2021/08/19 06:46:55;;;;;;;5.03;4.27;;;18.80;99.90;;;18.83;95.66;98187.38;5075664;28;20725;-85
2021/08/19 06:49:24;;;;;;;4.03;3.70;;;18.80;99.90;;;18.89;95.03;98194.69;5091323;28;20645;-85
2021/08/19 06:51:53;;;;;;;4.90;4.40;;;18.90;99.90;;;18.93;95.58;98199.53;5081541;28;20684;-85
2021/08/19 06:54:21;;;;;;;5.47;4.47;;;18.90;99.90;;;18.99;94.76;98198.09;5099344;28;20615;-85
2021/08/19 06:56:51;;;;;;;5.73;5.00;;;19.00;99.90;;;19.07;94.23;98199.00;5086577;28;20619;-85
2021/08/19 06:59:20;;;;;;;5.30;4.80;;;19.00;99.90;;;19.14;94.77;98194.75;5099709;28;20656;-86
2021/08/19 07:01:49;;;;;;;5.33;4.40;;;19.10;99.90;;;19.26;94.67;98195.31;5096234;28;20646;-85
2021/08/19 07:04:17;;;;;;;4.67;4.27;;;19.20;99.90;;;19.31;93.00;98196.50;5083417;28;20676;-86
2021/08/19 07:06:46;;;;;;;6.53;4.70;;;19.20;99.90;;;19.37;93.96;98196.72;5080717;28;20656;-86
2021/08/19 07:09:16;;;;;;;6.70;5.50;;;19.30;99.90;;;19.44;93.21;98195.13;5076364;28;20676;-85
2021/08/19 07:11:45;;;;;;;6.13;4.67;;;19.40;99.90;;;19.48;92.64;98201.75;5071822;28;20710;-85
2021/08/19 07:14:15;;;;;;;5.10;4.40;;;19.40;99.90;;;19.41;91.63;98200.72;5079923;28;20746;-86
2021/08/19 07:16:43;;;;;;;5.10;4.60;;;19.30;99.90;;;19.39;90.50;98191.25;5079939;28;20636;-86
2021/08/19 07:19:13;;;;;;;6.10;4.63;;;19.30;99.90;;;19.42;92.55;98205.03;5069147;28;21279;-85
2021/08/19 07:21:44;;;;;;;5.50;4.27;;;19.30;99.90;;;19.37;90.80;98200.38;5099196;27;20653;-86
2021/08/19 07:24:13;;;;;;;5.70;4.60;;;19.30;99.90;;;19.41;92.00;98191.97;5090939;28;20970;-85
2021/08/19 07:26:42;;;;;;;5.90;4.43;;;19.30;99.90;;;19.43;91.71;98196.09;5073428;28;20658;-85
2021/08/19 07:29:11;;;;;;;5.77;4.33;;;19.40;99.90;;;19.43;91.84;98193.44;5097844;28;20638;-85
2021/08/19 07:31:41;;;;;;;6.67;6.03;;;19.40;99.90;;;19.48;91.72;98204.41;5100290;28;20625;-85
2021/08/19 07:34:10;;;;;;;5.53;4.60;;;19.40;99.90;;;19.51;92.19;98205.91;5086441;28;20722;-85
2021/08/19 07:36:38;;;;;;;5.03;4.53;;;19.50;99.90;;;19.51;90.43;98193.47;5072304;28;20627;-85
2021/08/19 07:39:07;;;;;;;5.30;4.50;;;19.50;99.90;;;19.50;91.00;98191.84;5078577;28;20638;-85
2021/08/19 07:41:36;;;;;;;6.40;4.77;;;19.50;99.90;;;19.54;91.53;98201.09;5099729;28;21182;-85
2021/08/19 07:44:05;;;;;;;5.97;5.20;;;19.50;99.90;;;19.59;91.80;98198.00;5072502;28;20644;-85
2021/08/19 07:46:34;;;;;;;6.00;5.20;;;19.60;99.90;;;19.58;90.86;98199.00;5089635;28;20662;-87
2021/08/19 07:49:04;;;;;;;5.40;4.90;;;19.60;99.90;;;19.56;91.09;98204.44;5090741;28;20647;-87
2021/08/19 07:51:34;;;;;;;5.83;4.23;;;19.60;99.90;;;19.61;91.04;98203.97;5080245;28;20643;-87
2021/08/19 07:54:03;;;;;;;4.80;4.10;;;19.60;99.90;;;19.64;91.10;98201.00;5093134;28;20631;-87
2021/08/19 07:56:32;;;;;;;10.63;8.60;;;19.60;99.90;;;19.65;90.06;98206.16;5079790;28;20631;-87
2021/08/19 07:59:01;;;;;;;7.00;5.10;;;19.60;99.90;;;19.63;89.52;98200.16;5107568;28;20631;-87
2021/08/19 08:01:29;;;;;;;4.97;4.47;;;19.60;99.90;;;19.65;90.30;98200.84;5094644;28;20657;-87
2021/08/19 08:03:58;;;;;;;4.20;3.80;;;19.60;99.90;;;19.67;88.82;98206.00;5110987;28;20724;-87
2021/08/19 08:06:29;;;;;;;5.10;4.60;;;19.70;99.90;;;19.72;89.64;98201.03;5078710;28;20661;-87
2021/08/19 08:08:58;;;;;;;4.70;4.17;;;19.70;99.90;;;19.75;90.24;98208.69;5091486;28;20625;-87
2021/08/19 08:11:26;;;;;;;6.60;4.90;;;19.70;99.90;;;19.74;89.92;98212.31;5090620;28;20641;-87
2021/08/19 08:13:55;;;;;;;7.33;4.93;;;19.70;99.90;;;19.72;88.47;98207.16;5089260;28;20682;-86
2021/08/19 08:16:24;;;;;;;4.90;4.40;;;19.70;99.90;;;19.81;90.86;98210.69;5093177;28;20678;-87
2021/08/19 08:18:54;;;;;;;5.73;5.00;;;19.70;99.90;;;19.91;89.58;98218.38;5076075;28;20611;-87
2021/08/19 08:21:24;;;;;;;5.30;4.80;;;19.80;99.90;;;20.03;90.47;98216.28;5089457;28;20693;-87
2021/08/19 08:23:55;;;;;;;5.80;5.10;;;19.90;99.90;;;20.11;89.78;98213.66;5089094;28;21486;-87
2021/08/19 08:26:24;;;;;;;5.80;5.20;;;20.00;99.90;;;20.12;88.90;98213.50;5086264;28;20734;-87
2021/08/19 08:28:54;;;;;;;6.00;5.40;;;20.10;99.90;;;20.08;87.93;98220.09;5086465;28;21173;-87
2021/08/19 08:31:23;;;;;;;6.60;4.70;;;20.10;99.90;;;20.05;88.44;98219.59;5101184;28;20631;-87
2021/08/19 08:33:52;;;;;;;6.87;4.90;;;20.00;99.90;;;20.02;88.89;98227.84;5072715;28;20619;-87
2021/08/19 08:36:22;;;;;;;5.63;4.93;;;20.00;99.90;;;20.03;90.09;98229.53;5082175;28;21252;-86
2021/08/19 08:38:51;;;;;;;5.87;4.67;;;20.00;99.90;;;20.12;89.12;98217.97;5102683;28;20632;-87
2021/08/19 08:41:22;;;;;;;7.93;5.13;;;20.10;99.90;;;20.22;89.63;98224.81;5086150;28;20998;-86
2021/08/19 08:43:52;;;;;;;5.60;4.47;;;20.10;99.90;;;20.33;88.61;98225.31;5074582;28;20630;-87
2021/08/19 08:46:22;;;;;;;3.90;3.47;;;20.20;99.90;;;20.34;86.04;98224.34;5092789;28;20659;-87
2021/08/19 08:48:56;;;;;;;5.33;4.47;;;20.20;99.90;;;20.37;87.38;98224.00;5101007;28;20629;-86
2021/08/19 08:51:27;;;;;;;3.83;3.33;;;20.30;99.90;;;20.58;87.74;98226.19;5111248;28;20630;-87
2021/08/19 08:53:56;;;;;;;6.83;3.17;;;20.40;99.90;;;20.82;87.51;98219.13;5078660;28;20635;-87
2021/08/19 08:56:27;;;;;;;4.33;3.07;;;20.60;99.90;;;21.06;86.85;98222.63;5103347;28;20649;-87
2021/08/19 08:58:56;;;;;;;5.10;2.70;;;20.80;99.90;;;21.29;84.86;98220.97;5087377;28;20615;-87
2021/08/19 09:01:25;;;;;;;4.53;2.47;;;21.00;99.90;;;21.44;84.03;98225.41;5084331;28;20625;-87
2021/08/19 09:03:54;;;;;;;2.60;2.20;;;21.20;99.90;;;21.48;82.08;98224.09;5087676;28;20660;-87
2021/08/19 09:06:36;;;;;;;3.17;2.30;;;21.20;99.90;;;21.56;83.69;98226.75;5100641;28;20692;-87
2021/08/19 09:09:20;;;;;;;4.57;2.60;;;21.30;99.90;;;21.69;82.00;98227.03;5086882;28;20615;-87
2021/08/19 09:11:55;;;;;;;2.40;2.20;;;21.50;99.90;;;21.76;82.22;98225.38;5082983;28;20625;-87
2021/08/19 09:14:27;;;;;;;5.60;2.63;;;21.50;99.90;;;21.76;81.43;98217.41;5074962;28;21025;-88
2021/08/19 09:16:57;;;;;;;2.40;2.10;;;21.50;99.70;;;21.81;81.01;98220.38;5107972;28;20705;-87
2021/08/19 09:19:31;;;;;;;4.40;3.53;;;21.60;99.90;;;21.87;80.89;98227.66;5092966;28;21426;-87
2021/08/19 09:22:03;;;;;;;4.70;4.20;;;21.70;99.80;;;21.85;80.07;98222.53;5079162;28;20621;-87
2021/08/19 09:24:33;;;;;;;4.00;2.50;;;21.60;98.70;;;21.88;81.21;98216.03;5092725;28;20629;-87
2021/08/19 09:27:13;;;;;;;2.43;2.13;;;21.60;99.50;;;22.06;80.94;98220.13;5096865;28;20661;-88
2021/08/19 09:29:43;;;;;;;3.30;2.90;;;21.80;99.60;;;22.05;80.07;98215.78;5094110;28;20630;-87
2021/08/19 09:32:15;;;;;;;5.07;2.90;;;21.80;98.60;;;22.13;80.98;98209.63;5083964;28;20634;-88
2021/08/19 09:34:47;;;;;;;4.20;3.57;;;21.90;99.40;;;22.15;80.36;98213.78;5096545;28;20620;-88
2021/08/19 09:37:20;;;;;;;6.03;3.30;;;21.90;98.90;;;22.17;79.52;98214.41;5087247;28;20641;-87
2021/08/19 09:39:56;;;;;;;4.13;3.33;;;22.00;98.50;;;22.14;80.02;98214.75;5069494;28;21314;-87
2021/08/19 09:42:37;;;;;;;3.63;2.93;;;22.00;98.50;;;22.18;80.31;98204.63;5094198;28;20633;-87
2021/08/19 09:45:19;;;;;;;4.00;3.00;;;22.00;98.50;;;22.20;79.28;98198.13;5093751;28;20630;-88
2021/08/19 09:47:49;;;;;;;4.60;2.97;;;22.00;98.00;;;22.24;80.30;98208.28;5093377;28;20642;-87
2021/08/19 09:50:22;;;;;;;3.30;3.00;;;22.10;98.70;;;22.34;80.05;98203.56;5083145;28;20611;-87
2021/08/19 09:52:52;;;;;;;3.90;3.50;;;22.20;98.60;;;22.39;78.78;98205.72;5093956;28;20866;-88
2021/08/19 09:55:25;;;;;;;4.30;3.33;;;22.30;98.10;;;22.42;79.81;98198.19;5088878;28;20695;-87
2021/08/19 09:57:57;;;;;;;7.27;4.10;;;22.30;98.30;;;22.46;80.15;98196.88;5090156;28;20674;-87
2021/08/19 10:00:28;;;;;;;4.30;3.90;;;22.30;98.10;;;22.51;79.16;98194.50;5086154;28;20652;-87
2021/08/19 10:03:14;;;;;;;3.53;2.90;;;22.30;97.80;;;22.58;77.75;98197.25;5096485;28;20701;-87
2021/08/19 10:05:44;;;;;;;3.00;2.43;;;22.40;97.00;;;22.72;79.14;98203.50;5103552;28;20623;-87
2021/08/19 10:08:13;;;;;;;3.40;3.10;;;22.50;97.50;;;22.88;78.78;98199.88;5074646;28;20680;-83
2021/08/19 10:10:44;;;;;;;6.17;3.07;;;22.70;97.30;;;23.01;78.86;98197.47;5104984;28;20630;-83
2021/08/19 10:13:14;;;;;;;5.80;2.87;;;22.80;97.40;;;23.16;78.28;98201.84;5087060;28;20677;-85
2021/08/19 10:15:43;;;;;;;4.50;3.00;;;22.90;97.20;;;23.39;77.09;98203.44;5079792;28;20646;-85
2021/08/19 10:18:17;;;;;;;3.30;3.00;;;23.10;97.20;;;23.30;75.78;98201.03;5090301;28;20938;-86
2021/08/19 10:20:57;;;;;;;6.23;3.10;;;23.00;95.90;;;23.38;77.20;98201.78;5084053;28;21047;-86
2021/08/19 10:23:26;;;;;;;3.37;3.00;;;23.10;96.30;;;23.47;76.91;98191.88;5086048;28;20697;-86
2021/08/19 10:26:08;;;;;;;4.10;2.70;;;23.20;96.00;;;23.68;76.20;98192.88;5098308;27;20753;-86
2021/08/19 10:28:51;;;;;;;3.20;2.90;;;23.40;96.00;;;23.70;75.22;98185.50;5072316;28;21278;-86
2021/08/19 10:31:49;;;;;;;3.60;2.23;;;23.40;95.30;;;23.63;73.56;98184.53;5075069;28;20658;-86